Festivo — EAEQ — position and weather

sailwx.info

Track history (hours):
 
Tides and Currents Weather Stations Pressure Air Temp Water Temp Dewpoint Dewpoint Depression Visibility Wind Speed Wind Dir Waves Ship Positions

Festivo

Last reported at 2015-Mar-03 06:33 UTC. Time now 2015-Mar-03 07:29 UTC.
Position N 35°54' W 005°19'.

Length 136 m; draft 4.5 m.

Type: Cargo ship. MMSI: 225410000.

Date/timePositionNaut miles runAvg speedWind from/ knotsBaromVisibWave heightAir tempDewpointWater temp
2015-Mar-03 06:33N 35°54' W 005°19'2 1.6
2015-Mar-03 05:33N 35°55' W 005°18'5 4.8
2015-Mar-03 04:31N 35°58' W 005°13'  
2015-Feb-28 16:33N 35°56' W 005°17'3 2.2
2015-Feb-28 15:25N 35°54' W 005°19'0 0.0
2015-Feb-28 14:31N 35°54' W 005°19'0 0.0
2015-Feb-28 13:31N 35°54' W 005°19'0 0.0
2015-Feb-28 12:31N 35°54' W 005°19'0 0.0
2015-Feb-28 11:31N 35°54' W 005°19'0 0.0
2015-Feb-28 10:31N 35°54' W 005°19'0 0.0
2015-Feb-28 09:31N 35°54' W 005°19'0 0.0
2015-Feb-28 08:31N 35°54' W 005°19'0 0.0
2015-Feb-28 07:31N 35°54' W 005°19'0 0.0
2015-Feb-28 06:31N 35°54' W 005°19'1 0.7
2015-Feb-28 05:34N 35°54' W 005°19'8 7.5
2015-Feb-28 04:32N 35°59' W 005°12'  
2015-Feb-25 15:25N 35°57' W 005°13'6 7.2
2015-Feb-25 14:33N 35°54' W 005°19'0 0.0
2015-Feb-25 13:33N 35°54' W 005°19'0 0.0
2015-Feb-25 12:33N 35°54' W 005°19'0 0.1
2015-Feb-25 11:33N 35°54' W 005°19'7 6.9
2015-Feb-25 10:33N 35°59' W 005°13'1 0.0
2015-Feb-23 10:33N 35°59' W 005°12'8 7.7
2015-Feb-23 09:33N 35°54' W 005°19'0 0.0
2015-Feb-23 08:33N 35°54' W 005°19'0 0.0
2015-Feb-23 07:33N 35°54' W 005°19'0 0.0
2015-Feb-23 06:33N 35°54' W 005°19'1 0.5
2015-Feb-23 05:33N 35°54' W 005°19'  
Track history (hours):
 
Tides and Currents Weather Stations Pressure Air Temp Water Temp Dewpoint Dewpoint Depression Visibility Wind Speed Wind Dir Waves Ship Positions

Festivo

Last reported at 2015-Mar-03 06:33 UTC. Time now 2015-Mar-03 07:29 UTC.
Position N 35°54' W 005°19'.

Length 136 m; draft 4.5 m.

Type: Cargo ship. MMSI: 225410000.

Date/timePositionNaut miles runAvg speedWind from/ knotsBaromVisibWave heightAir tempDewpointWater temp
2015-Mar-03 06:33N 35°54' W 005°19'2 1.6
2015-Mar-03 05:33N 35°55' W 005°18'5 4.8
2015-Mar-03 04:31N 35°58' W 005°13'  
2015-Feb-28 16:33N 35°56' W 005°17'3 2.2
2015-Feb-28 15:25N 35°54' W 005°19'0 0.0
2015-Feb-28 14:31N 35°54' W 005°19'0 0.0
2015-Feb-28 13:31N 35°54' W 005°19'0 0.0
2015-Feb-28 12:31N 35°54' W 005°19'0 0.0
2015-Feb-28 11:31N 35°54' W 005°19'0 0.0
2015-Feb-28 10:31N 35°54' W 005°19'0 0.0
2015-Feb-28 09:31N 35°54' W 005°19'0 0.0
2015-Feb-28 08:31N 35°54' W 005°19'0 0.0
2015-Feb-28 07:31N 35°54' W 005°19'0 0.0
2015-Feb-28 06:31N 35°54' W 005°19'1 0.7
2015-Feb-28 05:34N 35°54' W 005°19'8 7.5
2015-Feb-28 04:32N 35°59' W 005°12'  
2015-Feb-25 15:25N 35°57' W 005°13'6 7.2
2015-Feb-25 14:33N 35°54' W 005°19'0 0.0
2015-Feb-25 13:33N 35°54' W 005°19'0 0.0
2015-Feb-25 12:33N 35°54' W 005°19'0 0.1
2015-Feb-25 11:33N 35°54' W 005°19'7 6.9
2015-Feb-25 10:33N 35°59' W 005°13'1 0.0
2015-Feb-23 10:33N 35°59' W 005°12'8 7.7
2015-Feb-23 09:33N 35°54' W 005°19'0 0.0
2015-Feb-23 08:33N 35°54' W 005°19'0 0.0
2015-Feb-23 07:33N 35°54' W 005°19'0 0.0
2015-Feb-23 06:33N 35°54' W 005°19'1 0.5
2015-Feb-23 05:33N 35°54' W 005°19'  

Dump ship's entire track history